sensor_id;sensor_type;location;lat;lon;timestamp;temperature;humidity
12819;DHT22;6474;53.474;9.894;2023-04-01T00:00:48;10.90;84.70
12819;DHT22;6474;53.474;9.894;2023-04-01T00:03:16;10.90;84.70
12819;DHT22;6474;53.474;9.894;2023-04-01T00:05:47;10.90;84.70
12819;DHT22;6474;53.474;9.894;2023-04-01T00:08:15;10.90;84.70
12819;DHT22;6474;53.474;9.894;2023-04-01T00:10:44;10.90;84.70
12819;DHT22;6474;53.474;9.894;2023-04-01T00:13:12;10.90;84.80
12819;DHT22;6474;53.474;9.894;2023-04-01T00:15:40;10.90;84.80
12819;DHT22;6474;53.474;9.894;2023-04-01T00:18:08;10.90;84.80
12819;DHT22;6474;53.474;9.894;2023-04-01T00:20:36;10.90;85.60
12819;DHT22;6474;53.474;9.894;2023-04-01T00:23:08;10.90;84.80
12819;DHT22;6474;53.474;9.894;2023-04-01T00:25:36;10.90;84.80
12819;DHT22;6474;53.474;9.894;2023-04-01T00:28:04;10.80;84.70
12819;DHT22;6474;53.474;9.894;2023-04-01T00:30:32;10.90;84.90
12819;DHT22;6474;53.474;9.894;2023-04-01T00:33:02;10.80;84.80
12819;DHT22;6474;53.474;9.894;2023-04-01T00:35:30;10.80;84.80
12819;DHT22;6474;53.474;9.894;2023-04-01T00:37:59;10.90;84.90
12819;DHT22;6474;53.474;9.894;2023-04-01T00:40:30;10.90;85.00
12819;DHT22;6474;53.474;9.894;2023-04-01T00:42:58;10.80;84.90
12819;DHT22;6474;53.474;9.894;2023-04-01T00:45:33;10.80;84.90
12819;DHT22;6474;53.474;9.894;2023-04-01T00:48:04;10.80;84.90
12819;DHT22;6474;53.474;9.894;2023-04-01T00:50:34;10.80;84.90
12819;DHT22;6474;53.474;9.894;2023-04-01T00:53:03;10.80;84.90
12819;DHT22;6474;53.474;9.894;2023-04-01T00:55:37;10.80;84.90
12819;DHT22;6474;53.474;9.894;2023-04-01T00:58:11;10.80;84.90
12819;DHT22;6474;53.474;9.894;2023-04-01T01:00:42;10.80;84.90
12819;DHT22;6474;53.474;9.894;2023-04-01T01:03:10;10.80;84.90
12819;DHT22;6474;53.474;9.894;2023-04-01T01:05:55;10.80;84.90
12819;DHT22;6474;53.474;9.894;2023-04-01T01:08:36;10.80;84.90
12819;DHT22;6474;53.474;9.894;2023-04-01T01:11:10;10.80;84.90
12819;DHT22;6474;53.474;9.894;2023-04-01T01:13:43;10.80;84.90
12819;DHT22;6474;53.474;9.894;2023-04-01T01:16:15;10.80;84.90
12819;DHT22;6474;53.474;9.894;2023-04-01T01:18:50;10.80;84.90
12819;DHT22;6474;53.474;9.894;2023-04-01T01:21:45;10.70;84.80
12819;DHT22;6474;53.474;9.894;2023-04-01T01:24:27;10.70;84.80
12819;DHT22;6474;53.474;9.894;2023-04-01T01:27:08;10.70;84.90
12819;DHT22;6474;53.474;9.894;2023-04-01T01:33:13;10.70;84.90
12819;DHT22;6474;53.474;9.894;2023-04-01T01:35:46;10.70;84.90
12819;DHT22;6474;53.474;9.894;2023-04-01T01:38:17;10.60;84.80
12819;DHT22;6474;53.474;9.894;2023-04-01T01:40:48;10.70;84.90
12819;DHT22;6474;53.474;9.894;2023-04-01T01:43:21;10.70;84.90
12819;DHT22;6474;53.474;9.894;2023-04-01T01:45:54;10.70;84.90
12819;DHT22;6474;53.474;9.894;2023-04-01T01:48:23;10.70;84.90
12819;DHT22;6474;53.474;9.894;2023-04-01T01:50:53;10.70;85.00
12819;DHT22;6474;53.474;9.894;2023-04-01T01:53:21;10.70;84.90
12819;DHT22;6474;53.474;9.894;2023-04-01T01:55:50;10.70;85.00
12819;DHT22;6474;53.474;9.894;2023-04-01T01:58:21;10.70;85.00
12819;DHT22;6474;53.474;9.894;2023-04-01T02:00:53;10.70;85.00
12819;DHT22;6474;53.474;9.894;2023-04-01T02:03:24;10.70;85.00
12819;DHT22;6474;53.474;9.894;2023-04-01T02:05:56;10.70;85.00
12819;DHT22;6474;53.474;9.894;2023-04-01T02:08:28;10.70;85.00
12819;DHT22;6474;53.474;9.894;2023-04-01T02:11:02;10.70;85.00
12819;DHT22;6474;53.474;9.894;2023-04-01T02:13:35;10.70;85.00
12819;DHT22;6474;53.474;9.894;2023-04-01T02:16:11;10.70;85.00
12819;DHT22;6474;53.474;9.894;2023-04-01T02:18:41;10.70;85.00
12819;DHT22;6474;53.474;9.894;2023-04-01T02:21:15;10.70;84.90
12819;DHT22;6474;53.474;9.894;2023-04-01T02:23:45;10.70;84.90
12819;DHT22;6474;53.474;9.894;2023-04-01T02:26:14;10.70;85.00
12819;DHT22;6474;53.474;9.894;2023-04-01T02:28:43;10.70;85.00
12819;DHT22;6474;53.474;9.894;2023-04-01T02:31:14;10.70;85.00
12819;DHT22;6474;53.474;9.894;2023-04-01T02:33:43;10.70;85.00
12819;DHT22;6474;53.474;9.894;2023-04-01T02:36:14;10.70;85.00
12819;DHT22;6474;53.474;9.894;2023-04-01T02:38:44;10.70;85.00
12819;DHT22;6474;53.474;9.894;2023-04-01T02:41:15;10.60;85.60
12819;DHT22;6474;53.474;9.894;2023-04-01T02:43:43;10.70;85.00
12819;DHT22;6474;53.474;9.894;2023-04-01T02:46:10;10.60;85.00
12819;DHT22;6474;53.474;9.894;2023-04-01T02:48:39;10.70;85.10
12819;DHT22;6474;53.474;9.894;2023-04-01T02:51:07;10.60;85.00
12819;DHT22;6474;53.474;9.894;2023-04-01T02:53:36;10.60;85.00
12819;DHT22;6474;53.474;9.894;2023-04-01T02:56:05;10.60;85.00
12819;DHT22;6474;53.474;9.894;2023-04-01T02:58:32;10.60;85.00
12819;DHT22;6474;53.474;9.894;2023-04-01T03:01:00;10.60;85.10
12819;DHT22;6474;53.474;9.894;2023-04-01T03:03:29;10.60;85.10
12819;DHT22;6474;53.474;9.894;2023-04-01T03:05:57;10.60;85.00
12819;DHT22;6474;53.474;9.894;2023-04-01T03:08:26;10.70;85.20
12819;DHT22;6474;53.474;9.894;2023-04-01T03:10:55;10.70;85.10
12819;DHT22;6474;53.474;9.894;2023-04-01T03:13:26;10.70;85.10
12819;DHT22;6474;53.474;9.894;2023-04-01T03:15:54;10.60;85.00
12819;DHT22;6474;53.474;9.894;2023-04-01T03:18:22;10.70;85.10
12819;DHT22;6474;53.474;9.894;2023-04-01T03:20:50;10.70;85.10
12819;DHT22;6474;53.474;9.894;2023-04-01T03:23:18;10.70;85.10
12819;DHT22;6474;53.474;9.894;2023-04-01T03:25:47;10.70;85.10
12819;DHT22;6474;53.474;9.894;2023-04-01T03:28:17;10.70;85.10
12819;DHT22;6474;53.474;9.894;2023-04-01T03:30:45;10.70;85.10
12819;DHT22;6474;53.474;9.894;2023-04-01T03:33:13;10.70;85.10
12819;DHT22;6474;53.474;9.894;2023-04-01T03:35:41;10.70;85.10
12819;DHT22;6474;53.474;9.894;2023-04-01T03:38:09;10.60;85.00
12819;DHT22;6474;53.474;9.894;2023-04-01T03:40:38;10.70;85.20
12819;DHT22;6474;53.474;9.894;2023-04-01T03:43:09;10.60;85.10
12819;DHT22;6474;53.474;9.894;2023-04-01T03:45:44;10.60;85.10
12819;DHT22;6474;53.474;9.894;2023-04-01T03:48:12;10.70;85.20
12819;DHT22;6474;53.474;9.894;2023-04-01T03:50:41;10.70;85.30
12819;DHT22;6474;53.474;9.894;2023-04-01T03:53:09;10.60;85.20
12819;DHT22;6474;53.474;9.894;2023-04-01T03:55:38;10.60;85.20
12819;DHT22;6474;53.474;9.894;2023-04-01T03:58:07;10.60;85.20
12819;DHT22;6474;53.474;9.894;2023-04-01T04:00:35;10.60;85.20
12819;DHT22;6474;53.474;9.894;2023-04-01T04:03:06;10.60;85.20
12819;DHT22;6474;53.474;9.894;2023-04-01T04:05:34;10.60;85.20
12819;DHT22;6474;53.474;9.894;2023-04-01T04:08:02;10.60;85.20
12819;DHT22;6474;53.474;9.894;2023-04-01T04:10:30;10.60;85.20
12819;DHT22;6474;53.474;9.894;2023-04-01T04:12:58;10.60;85.20
12819;DHT22;6474;53.474;9.894;2023-04-01T04:15:26;10.70;85.30
12819;DHT22;6474;53.474;9.894;2023-04-01T04:17:54;10.60;85.20
12819;DHT22;6474;53.474;9.894;2023-04-01T04:20:24;10.70;86.00
12819;DHT22;6474;53.474;9.894;2023-04-01T04:22:52;10.70;85.30
12819;DHT22;6474;53.474;9.894;2023-04-01T04:25:20;10.60;85.20
12819;DHT22;6474;53.474;9.894;2023-04-01T04:27:48;10.60;85.20
12819;DHT22;6474;53.474;9.894;2023-04-01T04:30:16;10.70;85.30
12819;DHT22;6474;53.474;9.894;2023-04-01T04:32:44;10.60;85.30
12819;DHT22;6474;53.474;9.894;2023-04-01T04:35:12;10.60;85.30
12819;DHT22;6474;53.474;9.894;2023-04-01T04:37:41;10.60;85.30
12819;DHT22;6474;53.474;9.894;2023-04-01T04:40:09;10.60;85.20
12819;DHT22;6474;53.474;9.894;2023-04-01T04:42:37;10.60;85.20
12819;DHT22;6474;53.474;9.894;2023-04-01T04:45:06;10.60;85.20
12819;DHT22;6474;53.474;9.894;2023-04-01T04:47:34;10.60;85.20
12819;DHT22;6474;53.474;9.894;2023-04-01T04:50:02;10.60;85.20
12819;DHT22;6474;53.474;9.894;2023-04-01T04:52:29;10.60;85.20
12819;DHT22;6474;53.474;9.894;2023-04-01T04:54:58;10.60;85.20
12819;DHT22;6474;53.474;9.894;2023-04-01T04:57:27;10.60;85.30
12819;DHT22;6474;53.474;9.894;2023-04-01T04:59:55;10.50;85.20
12819;DHT22;6474;53.474;9.894;2023-04-01T05:02:23;10.60;85.40
12819;DHT22;6474;53.474;9.894;2023-04-01T05:04:51;10.60;85.40
12819;DHT22;6474;53.474;9.894;2023-04-01T05:07:19;10.60;85.30
12819;DHT22;6474;53.474;9.894;2023-04-01T05:09:47;10.60;85.30
12819;DHT22;6474;53.474;9.894;2023-04-01T05:12:16;10.60;85.30
12819;DHT22;6474;53.474;9.894;2023-04-01T05:14:44;10.60;85.30
12819;DHT22;6474;53.474;9.894;2023-04-01T05:17:12;10.60;85.30
12819;DHT22;6474;53.474;9.894;2023-04-01T05:19:41;10.60;85.30
12819;DHT22;6474;53.474;9.894;2023-04-01T05:22:09;10.60;85.30
12819;DHT22;6474;53.474;9.894;2023-04-01T05:24:37;10.60;85.30
12819;DHT22;6474;53.474;9.894;2023-04-01T05:27:04;10.60;85.30
12819;DHT22;6474;53.474;9.894;2023-04-01T05:29:34;10.60;85.30
12819;DHT22;6474;53.474;9.894;2023-04-01T05:32:02;10.60;85.30
12819;DHT22;6474;53.474;9.894;2023-04-01T05:34:30;10.60;85.30
12819;DHT22;6474;53.474;9.894;2023-04-01T05:36:58;10.60;85.20
12819;DHT22;6474;53.474;9.894;2023-04-01T05:39:26;10.60;85.10
12819;DHT22;6474;53.474;9.894;2023-04-01T05:41:55;10.60;85.20
12819;DHT22;6474;53.474;9.894;2023-04-01T05:44:23;10.60;85.20
12819;DHT22;6474;53.474;9.894;2023-04-01T05:46:52;10.60;85.20
12819;DHT22;6474;53.474;9.894;2023-04-01T05:49:20;10.60;85.30
12819;DHT22;6474;53.474;9.894;2023-04-01T05:51:48;10.60;85.20
12819;DHT22;6474;53.474;9.894;2023-04-01T05:54:16;10.50;85.10
12819;DHT22;6474;53.474;9.894;2023-04-01T05:56:44;10.60;85.30
12819;DHT22;6474;53.474;9.894;2023-04-01T05:59:14;10.60;85.30
12819;DHT22;6474;53.474;9.894;2023-04-01T06:01:42;10.60;85.20
12819;DHT22;6474;53.474;9.894;2023-04-01T06:04:14;10.60;85.20
12819;DHT22;6474;53.474;9.894;2023-04-01T06:06:43;10.60;85.20
12819;DHT22;6474;53.474;9.894;2023-04-01T06:09:14;10.50;85.20
12819;DHT22;6474;53.474;9.894;2023-04-01T06:11:55;10.50;85.20
12819;DHT22;6474;53.474;9.894;2023-04-01T06:14:31;10.60;85.30
12819;DHT22;6474;53.474;9.894;2023-04-01T06:17:13;10.60;85.30
12819;DHT22;6474;53.474;9.894;2023-04-01T06:19:51;10.60;85.20
12819;DHT22;6474;53.474;9.894;2023-04-01T06:22:38;10.60;85.20
12819;DHT22;6474;53.474;9.894;2023-04-01T06:25:42;10.60;85.20
12819;DHT22;6474;53.474;9.894;2023-04-01T06:28:56;10.60;85.20
12819;DHT22;6474;53.474;9.894;2023-04-01T06:31:43;10.60;85.00
12819;DHT22;6474;53.474;9.894;2023-04-01T06:34:33;10.50;84.70
12819;DHT22;6474;53.474;9.894;2023-04-01T06:37:17;10.30;84.70
12819;DHT22;6474;53.474;9.894;2023-04-01T06:40:01;10.10;85.00
12819;DHT22;6474;53.474;9.894;2023-04-01T06:42:51;10.10;85.20
12819;DHT22;6474;53.474;9.894;2023-04-01T06:45:30;10.00;85.20
12819;DHT22;6474;53.474;9.894;2023-04-01T06:48:21;9.80;86.40
12819;DHT22;6474;53.474;9.894;2023-04-01T06:50:56;9.70;86.50
12819;DHT22;6474;53.474;9.894;2023-04-01T06:53:33;9.60;86.40
12819;DHT22;6474;53.474;9.894;2023-04-01T06:56:05;9.50;86.70
12819;DHT22;6474;53.474;9.894;2023-04-01T06:58:37;9.50;86.70
12819;DHT22;6474;53.474;9.894;2023-04-01T07:01:09;9.40;86.70
12819;DHT22;6474;53.474;9.894;2023-04-01T07:03:41;9.40;86.90
12819;DHT22;6474;53.474;9.894;2023-04-01T07:06:23;9.30;86.70
12819;DHT22;6474;53.474;9.894;2023-04-01T07:08:54;9.20;86.70
12819;DHT22;6474;53.474;9.894;2023-04-01T07:11:25;9.20;86.90
12819;DHT22;6474;53.474;9.894;2023-04-01T07:13:55;9.10;87.00
12819;DHT22;6474;53.474;9.894;2023-04-01T07:16:29;9.10;87.20
12819;DHT22;6474;53.474;9.894;2023-04-01T07:19:01;9.00;87.80
12819;DHT22;6474;53.474;9.894;2023-04-01T07:21:33;9.00;87.20
12819;DHT22;6474;53.474;9.894;2023-04-01T07:24:09;9.00;87.20
12819;DHT22;6474;53.474;9.894;2023-04-01T07:26:39;9.00;87.20
12819;DHT22;6474;53.474;9.894;2023-04-01T07:29:10;9.00;87.10
12819;DHT22;6474;53.474;9.894;2023-04-01T07:31:54;8.90;87.00
12819;DHT22;6474;53.474;9.894;2023-04-01T07:34:29;8.90;87.80
12819;DHT22;6474;53.474;9.894;2023-04-01T07:37:05;8.90;87.00
12819;DHT22;6474;53.474;9.894;2023-04-01T07:39:42;8.90;87.00
12819;DHT22;6474;53.474;9.894;2023-04-01T07:42:19;8.90;86.90
12819;DHT22;6474;53.474;9.894;2023-04-01T07:44:57;8.80;86.90
12819;DHT22;6474;53.474;9.894;2023-04-01T07:47:39;8.70;87.00
12819;DHT22;6474;53.474;9.894;2023-04-01T07:50:16;8.70;87.20
12819;DHT22;6474;53.474;9.894;2023-04-01T07:52:51;8.70;87.20
12819;DHT22;6474;53.474;9.894;2023-04-01T07:55:24;8.70;87.20
12819;DHT22;6474;53.474;9.894;2023-04-01T07:57:57;8.60;87.10
12819;DHT22;6474;53.474;9.894;2023-04-01T08:00:31;8.60;87.10
12819;DHT22;6474;53.474;9.894;2023-04-01T08:03:16;8.60;87.10
12819;DHT22;6474;53.474;9.894;2023-04-01T08:05:53;8.60;87.10
12819;DHT22;6474;53.474;9.894;2023-04-01T08:08:32;8.50;87.00
12819;DHT22;6474;53.474;9.894;2023-04-01T08:11:10;8.60;87.10
12819;DHT22;6474;53.474;9.894;2023-04-01T08:13:44;8.60;87.10
12819;DHT22;6474;53.474;9.894;2023-04-01T08:16:18;8.60;87.10
12819;DHT22;6474;53.474;9.894;2023-04-01T08:18:55;8.60;87.10
12819;DHT22;6474;53.474;9.894;2023-04-01T08:21:28;8.50;87.00
12819;DHT22;6474;53.474;9.894;2023-04-01T08:23:57;8.40;86.90
12819;DHT22;6474;53.474;9.894;2023-04-01T08:26:35;8.40;87.00
12819;DHT22;6474;53.474;9.894;2023-04-01T08:29:10;8.30;87.10
12819;DHT22;6474;53.474;9.894;2023-04-01T08:31:44;8.30;87.20
12819;DHT22;6474;53.474;9.894;2023-04-01T08:34:20;8.30;87.10
12819;DHT22;6474;53.474;9.894;2023-04-01T08:36:52;8.30;87.20
12819;DHT22;6474;53.474;9.894;2023-04-01T08:39:27;8.30;87.20
12819;DHT22;6474;53.474;9.894;2023-04-01T08:42:14;8.20;87.10
12819;DHT22;6474;53.474;9.894;2023-04-01T08:45:03;8.20;87.20
12819;DHT22;6474;53.474;9.894;2023-04-01T08:47:45;8.20;87.30
12819;DHT22;6474;53.474;9.894;2023-04-01T08:50:36;8.10;87.30
12819;DHT22;6474;53.474;9.894;2023-04-01T08:53:14;8.10;87.40
12819;DHT22;6474;53.474;9.894;2023-04-01T08:56:01;8.10;87.50
12819;DHT22;6474;53.474;9.894;2023-04-01T08:58:54;8.00;87.50
12819;DHT22;6474;53.474;9.894;2023-04-01T09:01:39;8.10;87.70
12819;DHT22;6474;53.474;9.894;2023-04-01T09:04:25;8.10;87.50
12819;DHT22;6474;53.474;9.894;2023-04-01T09:07:06;8.20;87.50
12819;DHT22;6474;53.474;9.894;2023-04-01T09:10:12;8.20;87.40
12819;DHT22;6474;53.474;9.894;2023-04-01T09:12:59;8.20;87.30
12819;DHT22;6474;53.474;9.894;2023-04-01T09:15:47;8.30;88.00
12819;DHT22;6474;53.474;9.894;2023-04-01T09:18:42;8.30;87.10
12819;DHT22;6474;53.474;9.894;2023-04-01T09:24:28;8.20;87.30
12819;DHT22;6474;53.474;9.894;2023-04-01T09:27:07;8.20;87.20
12819;DHT22;6474;53.474;9.894;2023-04-01T09:33:00;8.20;87.30
12819;DHT22;6474;53.474;9.894;2023-04-01T09:35:39;8.20;87.20
12819;DHT22;6474;53.474;9.894;2023-04-01T09:38:20;8.20;87.30
12819;DHT22;6474;53.474;9.894;2023-04-01T09:40:55;8.20;87.40
12819;DHT22;6474;53.474;9.894;2023-04-01T09:43:28;8.20;87.30
12819;DHT22;6474;53.474;9.894;2023-04-01T09:46:14;8.20;87.30
12819;DHT22;6474;53.474;9.894;2023-04-01T09:51:41;8.20;87.40
12819;DHT22;6474;53.474;9.894;2023-04-01T09:54:21;8.20;87.50
12819;DHT22;6474;53.474;9.894;2023-04-01T09:57:21;8.20;87.60
12819;DHT22;6474;53.474;9.894;2023-04-01T10:03:19;8.30;87.50
12819;DHT22;6474;53.474;9.894;2023-04-01T10:06:36;8.30;87.50
12819;DHT22;6474;53.474;9.894;2023-04-01T10:15:47;8.30;87.70
12819;DHT22;6474;53.474;9.894;2023-04-01T10:21:59;8.30;87.20
12819;DHT22;6474;53.474;9.894;2023-04-01T10:27:59;8.20;87.80
12819;DHT22;6474;53.474;9.894;2023-04-01T10:33:50;8.30;87.90
12819;DHT22;6474;53.474;9.894;2023-04-01T10:36:41;8.30;87.80
12819;DHT22;6474;53.474;9.894;2023-04-01T10:42:42;8.20;87.90
12819;DHT22;6474;53.474;9.894;2023-04-01T10:45:48;8.20;87.90
12819;DHT22;6474;53.474;9.894;2023-04-01T10:51:45;8.30;88.00
12819;DHT22;6474;53.474;9.894;2023-04-01T10:54:32;8.30;87.80
12819;DHT22;6474;53.474;9.894;2023-04-01T10:57:17;8.30;87.60
12819;DHT22;6474;53.474;9.894;2023-04-01T11:00:14;8.30;87.60
12819;DHT22;6474;53.474;9.894;2023-04-01T11:16:12;8.00;87.80
12819;DHT22;6474;53.474;9.894;2023-04-01T11:19:04;8.00;87.80
12819;DHT22;6474;53.474;9.894;2023-04-01T11:25:17;7.90;87.90
12819;DHT22;6474;53.474;9.894;2023-04-01T11:28:11;8.00;88.00
12819;DHT22;6474;53.474;9.894;2023-04-01T11:31:00;8.00;87.90
12819;DHT22;6474;53.474;9.894;2023-04-01T11:33:36;8.00;87.60
12819;DHT22;6474;53.474;9.894;2023-04-01T11:36:20;8.00;87.60
12819;DHT22;6474;53.474;9.894;2023-04-01T11:39:00;8.00;87.60
12819;DHT22;6474;53.474;9.894;2023-04-01T11:41:37;8.00;87.60
12819;DHT22;6474;53.474;9.894;2023-04-01T11:44:16;7.90;87.60
12819;DHT22;6474;53.474;9.894;2023-04-01T11:47:15;7.90;87.90
12819;DHT22;6474;53.474;9.894;2023-04-01T11:49:55;7.90;88.00
12819;DHT22;6474;53.474;9.894;2023-04-01T11:52:36;7.90;88.10
12819;DHT22;6474;53.474;9.894;2023-04-01T11:55:27;8.00;88.10
12819;DHT22;6474;53.474;9.894;2023-04-01T11:58:16;7.90;88.10
12819;DHT22;6474;53.474;9.894;2023-04-01T12:01:04;8.00;88.30
12819;DHT22;6474;53.474;9.894;2023-04-01T12:03:46;8.10;88.40
12819;DHT22;6474;53.474;9.894;2023-04-01T12:06:24;8.20;88.20
12819;DHT22;6474;53.474;9.894;2023-04-01T12:09:03;8.30;88.10
12819;DHT22;6474;53.474;9.894;2023-04-01T12:11:36;8.30;87.90
12819;DHT22;6474;53.474;9.894;2023-04-01T12:14:12;8.30;87.80
12819;DHT22;6474;53.474;9.894;2023-04-01T12:16:50;8.30;87.60
12819;DHT22;6474;53.474;9.894;2023-04-01T12:19:29;8.20;87.40
12819;DHT22;6474;53.474;9.894;2023-04-01T12:22:23;8.20;87.60
12819;DHT22;6474;53.474;9.894;2023-04-01T12:25:07;8.10;87.80
12819;DHT22;6474;53.474;9.894;2023-04-01T12:27:45;8.00;87.90
12819;DHT22;6474;53.474;9.894;2023-04-01T12:30:35;8.00;88.10
12819;DHT22;6474;53.474;9.894;2023-04-01T12:33:37;7.90;88.10
12819;DHT22;6474;53.474;9.894;2023-04-01T12:36:23;8.00;88.20
12819;DHT22;6474;53.474;9.894;2023-04-01T12:39:17;8.00;88.00
12819;DHT22;6474;53.474;9.894;2023-04-01T12:41:55;7.90;88.00
12819;DHT22;6474;53.474;9.894;2023-04-01T12:44:45;7.80;87.80
12819;DHT22;6474;53.474;9.894;2023-04-01T12:47:32;7.70;87.90
12819;DHT22;6474;53.474;9.894;2023-04-01T12:50:19;7.60;88.20
12819;DHT22;6474;53.474;9.894;2023-04-01T12:53:02;7.60;88.40
12819;DHT22;6474;53.474;9.894;2023-04-01T12:55:42;7.70;88.50
12819;DHT22;6474;53.474;9.894;2023-04-01T12:58:27;7.70;88.40
12819;DHT22;6474;53.474;9.894;2023-04-01T13:04:28;7.60;88.00
12819;DHT22;6474;53.474;9.894;2023-04-01T13:07:16;7.60;88.20
12819;DHT22;6474;53.474;9.894;2023-04-01T13:09:52;7.60;88.40
12819;DHT22;6474;53.474;9.894;2023-04-01T13:15:36;7.60;88.70
12819;DHT22;6474;53.474;9.894;2023-04-01T13:18:16;7.50;88.40
12819;DHT22;6474;53.474;9.894;2023-04-01T13:20:51;7.50;88.50
12819;DHT22;6474;53.474;9.894;2023-04-01T13:23:30;7.50;88.50
12819;DHT22;6474;53.474;9.894;2023-04-01T13:26:07;7.50;88.50
12819;DHT22;6474;53.474;9.894;2023-04-01T13:28:43;7.60;88.60
12819;DHT22;6474;53.474;9.894;2023-04-01T13:31:38;7.50;88.50
12819;DHT22;6474;53.474;9.894;2023-04-01T13:34:21;7.50;88.50
12819;DHT22;6474;53.474;9.894;2023-04-01T13:36:59;7.50;88.50
12819;DHT22;6474;53.474;9.894;2023-04-01T13:39:45;7.50;88.60
12819;DHT22;6474;53.474;9.894;2023-04-01T13:42:21;7.50;88.80
12819;DHT22;6474;53.474;9.894;2023-04-01T13:44:55;7.60;88.80
12819;DHT22;6474;53.474;9.894;2023-04-01T13:47:34;7.60;88.70
12819;DHT22;6474;53.474;9.894;2023-04-01T13:53:23;7.50;88.30
12819;DHT22;6474;53.474;9.894;2023-04-01T13:56:00;7.40;88.20
12819;DHT22;6474;53.474;9.894;2023-04-01T13:58:51;7.40;88.20
12819;DHT22;6474;53.474;9.894;2023-04-01T14:01:29;7.30;88.30
12819;DHT22;6474;53.474;9.894;2023-04-01T14:04:25;7.30;88.40
12819;DHT22;6474;53.474;9.894;2023-04-01T14:07:04;7.20;88.40
12819;DHT22;6474;53.474;9.894;2023-04-01T14:09:50;7.20;88.40
12819;DHT22;6474;53.474;9.894;2023-04-01T14:12:29;7.10;88.40
12819;DHT22;6474;53.474;9.894;2023-04-01T14:15:18;7.10;88.40
12819;DHT22;6474;53.474;9.894;2023-04-01T14:17:57;7.00;88.40
12819;DHT22;6474;53.474;9.894;2023-04-01T14:20:36;7.00;88.50
12819;DHT22;6474;53.474;9.894;2023-04-01T14:23:26;7.00;88.50
12819;DHT22;6474;53.474;9.894;2023-04-01T14:26:07;7.00;88.60
12819;DHT22;6474;53.474;9.894;2023-04-01T14:28:42;7.00;88.60
12819;DHT22;6474;53.474;9.894;2023-04-01T14:31:43;7.00;88.70
12819;DHT22;6474;53.474;9.894;2023-04-01T14:34:24;7.00;88.70
12819;DHT22;6474;53.474;9.894;2023-04-01T14:37:04;7.00;88.60
12819;DHT22;6474;53.474;9.894;2023-04-01T14:40:14;7.00;88.60
12819;DHT22;6474;53.474;9.894;2023-04-01T14:42:58;7.10;88.60
12819;DHT22;6474;53.474;9.894;2023-04-01T14:45:46;7.20;88.70
12819;DHT22;6474;53.474;9.894;2023-04-01T14:48:25;7.20;88.60
12819;DHT22;6474;53.474;9.894;2023-04-01T14:51:03;7.30;88.40
12819;DHT22;6474;53.474;9.894;2023-04-01T14:53:35;7.30;88.30
12819;DHT22;6474;53.474;9.894;2023-04-01T14:56:05;7.30;88.30
12819;DHT22;6474;53.474;9.894;2023-04-01T14:58:43;7.20;88.20
12819;DHT22;6474;53.474;9.894;2023-04-01T15:01:23;7.20;88.20
12819;DHT22;6474;53.474;9.894;2023-04-01T15:04:00;7.20;87.90
12819;DHT22;6474;53.474;9.894;2023-04-01T15:06:42;7.10;88.00
12819;DHT22;6474;53.474;9.894;2023-04-01T15:09:19;7.00;88.20
12819;DHT22;6474;53.474;9.894;2023-04-01T15:12:00;7.00;88.30
12819;DHT22;6474;53.474;9.894;2023-04-01T15:15:01;6.90;88.30
12819;DHT22;6474;53.474;9.894;2023-04-01T15:17:47;6.90;88.40
12819;DHT22;6474;53.474;9.894;2023-04-01T15:20:38;6.80;88.30
12819;DHT22;6474;53.474;9.894;2023-04-01T15:23:19;6.80;88.30
12819;DHT22;6474;53.474;9.894;2023-04-01T15:29:06;6.80;88.40
12819;DHT22;6474;53.474;9.894;2023-04-01T15:31:47;6.80;88.40
12819;DHT22;6474;53.474;9.894;2023-04-01T15:34:23;6.80;88.50
12819;DHT22;6474;53.474;9.894;2023-04-01T15:36:57;6.80;88.50
12819;DHT22;6474;53.474;9.894;2023-04-01T15:39:39;6.80;88.40
12819;DHT22;6474;53.474;9.894;2023-04-01T15:42:20;6.80;88.40
12819;DHT22;6474;53.474;9.894;2023-04-01T15:45:01;6.70;88.20
12819;DHT22;6474;53.474;9.894;2023-04-01T15:47:37;6.60;88.20
12819;DHT22;6474;53.474;9.894;2023-04-01T15:50:32;6.60;88.40
12819;DHT22;6474;53.474;9.894;2023-04-01T15:53:13;6.50;88.30
12819;DHT22;6474;53.474;9.894;2023-04-01T15:55:49;6.50;88.40
12819;DHT22;6474;53.474;9.894;2023-04-01T15:58:38;6.50;88.30
12819;DHT22;6474;53.474;9.894;2023-04-01T16:01:17;6.40;88.40
12819;DHT22;6474;53.474;9.894;2023-04-01T16:03:55;6.40;88.30
12819;DHT22;6474;53.474;9.894;2023-04-01T16:06:39;6.40;88.30
12819;DHT22;6474;53.474;9.894;2023-04-01T16:09:25;6.30;88.30
12819;DHT22;6474;53.474;9.894;2023-04-01T16:12:00;6.30;88.30
12819;DHT22;6474;53.474;9.894;2023-04-01T16:14:38;6.30;88.30
12819;DHT22;6474;53.474;9.894;2023-04-01T16:17:28;6.20;88.30
12819;DHT22;6474;53.474;9.894;2023-04-01T16:20:02;6.20;88.20
12819;DHT22;6474;53.474;9.894;2023-04-01T16:22:39;6.20;88.30
12819;DHT22;6474;53.474;9.894;2023-04-01T16:25:19;6.10;88.20
12819;DHT22;6474;53.474;9.894;2023-04-01T16:27:54;6.10;88.20
12819;DHT22;6474;53.474;9.894;2023-04-01T16:30:35;6.10;88.30
12819;DHT22;6474;53.474;9.894;2023-04-01T16:33:07;6.10;88.30
12819;DHT22;6474;53.474;9.894;2023-04-01T16:35:43;6.00;88.20
12819;DHT22;6474;53.474;9.894;2023-04-01T16:38:18;6.00;88.40
12819;DHT22;6474;53.474;9.894;2023-04-01T16:41:00;5.90;88.40
12819;DHT22;6474;53.474;9.894;2023-04-01T16:43:39;5.90;88.50
12819;DHT22;6474;53.474;9.894;2023-04-01T16:46:36;5.90;88.50
12819;DHT22;6474;53.474;9.894;2023-04-01T16:49:29;5.90;88.50
12819;DHT22;6474;53.474;9.894;2023-04-01T16:52:13;5.90;88.60
12819;DHT22;6474;53.474;9.894;2023-04-01T16:54:47;5.90;88.50
12819;DHT22;6474;53.474;9.894;2023-04-01T16:57:21;5.80;88.30
12819;DHT22;6474;53.474;9.894;2023-04-01T16:59:56;5.80;88.40
12819;DHT22;6474;53.474;9.894;2023-04-01T17:02:33;5.80;88.50
12819;DHT22;6474;53.474;9.894;2023-04-01T17:05:06;5.80;88.50
12819;DHT22;6474;53.474;9.894;2023-04-01T17:07:44;5.80;88.60
12819;DHT22;6474;53.474;9.894;2023-04-01T17:10:25;5.80;88.60
12819;DHT22;6474;53.474;9.894;2023-04-01T17:13:12;5.70;88.50
12819;DHT22;6474;53.474;9.894;2023-04-01T17:15:51;5.70;88.40
12819;DHT22;6474;53.474;9.894;2023-04-01T17:18:27;5.70;88.40
12819;DHT22;6474;53.474;9.894;2023-04-01T17:21:05;5.60;88.40
12819;DHT22;6474;53.474;9.894;2023-04-01T17:23:38;5.60;88.60
12819;DHT22;6474;53.474;9.894;2023-04-01T17:26:26;5.60;88.70
12819;DHT22;6474;53.474;9.894;2023-04-01T17:29:08;5.50;88.60
12819;DHT22;6474;53.474;9.894;2023-04-01T17:31:46;5.50;88.60
12819;DHT22;6474;53.474;9.894;2023-04-01T17:34:35;5.40;88.50
12819;DHT22;6474;53.474;9.894;2023-04-01T17:37:18;5.40;88.70
12819;DHT22;6474;53.474;9.894;2023-04-01T17:39:57;5.40;88.80
12819;DHT22;6474;53.474;9.894;2023-04-01T17:42:35;5.40;88.70
12819;DHT22;6474;53.474;9.894;2023-04-01T17:45:10;5.30;88.70
12819;DHT22;6474;53.474;9.894;2023-04-01T17:47:52;5.30;88.70
12819;DHT22;6474;53.474;9.894;2023-04-01T17:50:30;5.30;88.70
12819;DHT22;6474;53.474;9.894;2023-04-01T17:53:11;5.20;88.70
12819;DHT22;6474;53.474;9.894;2023-04-01T17:55:47;5.20;88.70
12819;DHT22;6474;53.474;9.894;2023-04-01T17:58:19;5.20;88.70
12819;DHT22;6474;53.474;9.894;2023-04-01T18:01:08;5.20;88.70
12819;DHT22;6474;53.474;9.894;2023-04-01T18:03:57;5.20;88.70
12819;DHT22;6474;53.474;9.894;2023-04-01T18:06:36;5.10;88.60